No particular awareness of the weather is required.    There are no Weather-warnings


Meteo18 Weather Cam more information Meteo18 Weather Cam


Thunder radar more information blitzortung!


Rain radar more information rain snow radar


Visit our other weather sites:

Template documentation
and downloads

And another site



Weather Underground History page Text

Daily Summary for August 5, 2017 Units:  Both    English   Metric
« Previous Day
Next Day »
Daily Weekly Monthly Yearly Custom
  High: Low: Average:
Temperature: 73.4 °F /  23.0 °C 62.2 °F /  16.8 °C 69.3 °F /  20.7 °C
Dew Point: 64.9 °F /  18.3 °C 51.6 °F /  10.9 °C 59.2 °F /  15.1 °C
Humidity: 92 % 51 % 71 %
Wind Speed: 11 mph /  17.7 km/h - 3.5 mph /  5.7 km/h
Wind Gust: 14 mph /  22.5 km/h - -
Wind:- - West
Pressure: 30.2 in /  1022.6 hPa 30 in /  1016.1 hPa -
Precipitation: 0 in /  0.0 mm    
Historical Graphs
 
 
Tabular Data for August 5, 2017
Time Temperature Dew Point Pressure Wind Wind Speed Wind Gust Humidity Rainfall Rate (Hourly)
00:02 70.2 °F /  21.2 °C 63 °F /  17.2 °C 30 in /  1017.2 hPa Calm   1 mph /  1.6 km/h 78 % 0 in /  0.0 mm
00:07 70.2 °F /  21.2 °C 62.6 °F /  17.0 °C 30 in /  1017.2 hPa Calm   1 mph /  1.6 km/h 77 % 0 in /  0.0 mm
00:12 70 °F /  21.1 °C 62.8 °F /  17.1 °C 30 in /  1017.2 hPa Calm   1 mph /  1.6 km/h 78 % 0 in /  0.0 mm
00:17 70 °F /  21.1 °C 62.8 °F /  17.1 °C 30 in /  1017.2 hPa Calm   1 mph /  1.6 km/h 78 % 0 in /  0.0 mm
00:22 69.6 °F /  20.9 °C 62.8 °F /  17.1 °C 30 in /  1017.2 hPa Calm   1 mph /  1.6 km/h 79 % 0 in /  0.0 mm
00:27 69.4 °F /  20.8 °C 63 °F /  17.2 °C 30 in /  1017.2 hPa Calm   1 mph /  1.6 km/h 80 % 0 in /  0.0 mm
00:32 69.4 °F /  20.8 °C 63.3 °F /  17.4 °C 30 in /  1017.2 hPa Calm   1 mph /  1.6 km/h 81 % 0 in /  0.0 mm
00:42 69.3 °F /  20.7 °C 63.1 °F /  17.3 °C 30 in /  1017.2 hPa SSW 1 mph /  1.6 km/h 2 mph /  3.2 km/h 81 % 0 in /  0.0 mm
00:47 69.3 °F /  20.7 °C 63.1 °F /  17.3 °C 30 in /  1016.8 hPa SSW 1 mph /  1.6 km/h 2 mph /  3.2 km/h 81 % 0 in /  0.0 mm
00:52 69.4 °F /  20.8 °C 63 °F /  17.2 °C 30 in /  1016.8 hPa SSW 1 mph /  1.6 km/h 2 mph /  3.2 km/h 80 % 0 in /  0.0 mm
00:57 69.6 °F /  20.9 °C 63.1 °F /  17.3 °C 30 in /  1016.8 hPa SSW 2 mph /  3.2 km/h 3 mph /  4.8 km/h 80 % 0 in /  0.0 mm
01:02 70 °F /  21.1 °C 63.5 °F /  17.5 °C 30 in /  1016.8 hPa SSW 2 mph /  3.2 km/h 3 mph /  4.8 km/h 80 % 0 in /  0.0 mm
01:07 70 °F /  21.1 °C 63.5 °F /  17.5 °C 30 in /  1016.8 hPa South 2 mph /  3.2 km/h 4 mph /  6.4 km/h 80 % 0 in /  0.0 mm
01:12 70 °F /  21.1 °C 63.5 °F /  17.5 °C 30 in /  1016.8 hPa SSW 1 mph /  1.6 km/h 4 mph /  6.4 km/h 80 % 0 in /  0.0 mm
01:17 70 °F /  21.1 °C 63.9 °F /  17.7 °C 30 in /  1016.5 hPa WSW 5 mph /  8.0 km/h 5 mph /  8.0 km/h 81 % 0 in /  0.0 mm
01:22 70.2 °F /  21.2 °C 64 °F /  17.8 °C 30 in /  1016.8 hPa SW 3 mph /  4.8 km/h 5 mph /  8.0 km/h 81 % 0 in /  0.0 mm
01:27 70.3 °F /  21.3 °C 63.9 °F /  17.7 °C 30 in /  1016.8 hPa WSW 5 mph /  8.0 km/h 6 mph /  9.7 km/h 80 % 0 in /  0.0 mm
01:32 70.5 °F /  21.4 °C 64 °F /  17.8 °C 30 in /  1016.8 hPa SW 3 mph /  4.8 km/h 7 mph /  11.3 km/h 80 % 0 in /  0.0 mm
01:42 70.5 °F /  21.4 °C 64 °F /  17.8 °C 30 in /  1016.5 hPa SSW 4 mph /  6.4 km/h 8 mph /  12.9 km/h 80 % 0 in /  0.0 mm
01:52 70.3 °F /  21.3 °C 63.9 °F /  17.7 °C 30 in /  1016.5 hPa SW 5 mph /  8.0 km/h 8 mph /  12.9 km/h 80 % 0 in /  0.0 mm
01:57 70.3 °F /  21.3 °C 64.2 °F /  17.9 °C 30 in /  1016.5 hPa SW 3 mph /  4.8 km/h 7 mph /  11.3 km/h 81 % 0 in /  0.0 mm
02:02 70.2 °F /  21.2 °C 64 °F /  17.8 °C 30 in /  1016.5 hPa SW 4 mph /  6.4 km/h 6 mph /  9.7 km/h 81 % 0 in /  0.0 mm
02:07 70.2 °F /  21.2 °C 64 °F /  17.8 °C 30 in /  1016.5 hPa SSW 3 mph /  4.8 km/h 6 mph /  9.7 km/h 81 % 0 in /  0.0 mm
02:12 70 °F /  21.1 °C 64.2 °F /  17.9 °C 30 in /  1016.5 hPa SSW 4 mph /  6.4 km/h 6 mph /  9.7 km/h 82 % 0 in /  0.0 mm
02:17 70 °F /  21.1 °C 64.2 °F /  17.9 °C 30 in /  1016.5 hPa SSW 2 mph /  3.2 km/h 6 mph /  9.7 km/h 82 % 0 in /  0.0 mm
02:22 69.8 °F /  21.0 °C 64 °F /  17.8 °C 30 in /  1016.5 hPa SSW 2 mph /  3.2 km/h 5 mph /  8.0 km/h 82 % 0 in /  0.0 mm
02:27 69.6 °F /  20.9 °C 64.2 °F /  17.9 °C 30 in /  1016.5 hPa SW 3 mph /  4.8 km/h 5 mph /  8.0 km/h 83 % 0 in /  0.0 mm
02:32 69.6 °F /  20.9 °C 64.2 °F /  17.9 °C 30 in /  1016.5 hPa SW 5 mph /  8.0 km/h 5 mph /  8.0 km/h 83 % 0 in /  0.0 mm
02:37 69.6 °F /  20.9 °C 64.2 °F /  17.9 °C 30 in /  1016.5 hPa SW 2 mph /  3.2 km/h 5 mph /  8.0 km/h 83 % 0 in /  0.0 mm
02:42 69.8 °F /  21.0 °C 64 °F /  17.8 °C 30 in /  1016.5 hPa SW 3 mph /  4.8 km/h 5 mph /  8.0 km/h 82 % 0 in /  0.0 mm
02:47 70 °F /  21.1 °C 63.9 °F /  17.7 °C 30 in /  1016.5 hPa WSW 3 mph /  4.8 km/h 5 mph /  8.0 km/h 81 % 0 in /  0.0 mm
02:52 70.2 °F /  21.2 °C 64 °F /  17.8 °C 30 in /  1016.1 hPa SSW 2 mph /  3.2 km/h 5 mph /  8.0 km/h 81 % 0 in /  0.0 mm
02:57 70.2 °F /  21.2 °C 64 °F /  17.8 °C 30 in /  1016.1 hPa SW 1 mph /  1.6 km/h 5 mph /  8.0 km/h 81 % 0 in /  0.0 mm
03:02 70.2 °F /  21.2 °C 64 °F /  17.8 °C 30 in /  1016.1 hPa South 2 mph /  3.2 km/h 5 mph /  8.0 km/h 81 % 0 in /  0.0 mm
03:07 70.2 °F /  21.2 °C 64 °F /  17.8 °C 30 in /  1016.1 hPa SW 2 mph /  3.2 km/h 4 mph /  6.4 km/h 81 % 0 in /  0.0 mm
03:12 70 °F /  21.1 °C 64.2 °F /  17.9 °C 30 in /  1016.1 hPa SSW 1 mph /  1.6 km/h 4 mph /  6.4 km/h 82 % 0 in /  0.0 mm
03:17 70 °F /  21.1 °C 64.2 °F /  17.9 °C 30 in /  1016.1 hPa SW 3 mph /  4.8 km/h 3 mph /  4.8 km/h 82 % 0 in /  0.0 mm
03:22 70 °F /  21.1 °C 64.2 °F /  17.9 °C 30 in /  1016.5 hPa SSW 3 mph /  4.8 km/h 4 mph /  6.4 km/h 82 % 0 in /  0.0 mm
03:27 70 °F /  21.1 °C 64.2 °F /  17.9 °C 30 in /  1016.1 hPa SW 2 mph /  3.2 km/h 4 mph /  6.4 km/h 82 % 0 in /  0.0 mm
03:32 70 °F /  21.1 °C 64.2 °F /  17.9 °C 30 in /  1016.1 hPa SW 2 mph /  3.2 km/h 4 mph /  6.4 km/h 82 % 0 in /  0.0 mm
03:37 69.8 °F /  21.0 °C 64.4 °F /  18.0 °C 30 in /  1016.1 hPa SSW 2 mph /  3.2 km/h 4 mph /  6.4 km/h 83 % 0 in /  0.0 mm
03:42 69.6 °F /  20.9 °C 64.2 °F /  17.9 °C 30 in /  1016.1 hPa SW 2 mph /  3.2 km/h 4 mph /  6.4 km/h 83 % 0 in /  0.0 mm
03:47 69.8 °F /  21.0 °C 64 °F /  17.8 °C 30 in /  1016.5 hPa SW 3 mph /  4.8 km/h 6 mph /  9.7 km/h 82 % 0 in /  0.0 mm
03:52 70.2 °F /  21.2 °C 64 °F /  17.8 °C 30 in /  1016.1 hPa WSW 4 mph /  6.4 km/h 6 mph /  9.7 km/h 81 % 0 in /  0.0 mm
03:57 70.2 °F /  21.2 °C 64 °F /  17.8 °C 30 in /  1016.5 hPa WSW 4 mph /  6.4 km/h 8 mph /  12.9 km/h 81 % 0 in /  0.0 mm
04:02 70.2 °F /  21.2 °C 64 °F /  17.8 °C 30 in /  1016.5 hPa SSW 1 mph /  1.6 km/h 8 mph /  12.9 km/h 81 % 0 in /  0.0 mm
04:07 70.2 °F /  21.2 °C 64 °F /  17.8 °C 30 in /  1016.5 hPa SW 4 mph /  6.4 km/h 7 mph /  11.3 km/h 81 % 0 in /  0.0 mm
04:12 70.2 °F /  21.2 °C 64 °F /  17.8 °C 30 in /  1016.5 hPa SSW 3 mph /  4.8 km/h 7 mph /  11.3 km/h 81 % 0 in /  0.0 mm
04:17 70 °F /  21.1 °C 63.9 °F /  17.7 °C 30 in /  1016.5 hPa SSW 3 mph /  4.8 km/h 6 mph /  9.7 km/h 81 % 0 in /  0.0 mm
04:22 70 °F /  21.1 °C 63.9 °F /  17.7 °C 30 in /  1016.5 hPa SW 1 mph /  1.6 km/h 7 mph /  11.3 km/h 81 % 0 in /  0.0 mm
04:32 70 °F /  21.1 °C 64.2 °F /  17.9 °C 30 in /  1016.5 hPa SW 3 mph /  4.8 km/h 9 mph /  14.5 km/h 82 % 0 in /  0.0 mm
04:37 70 °F /  21.1 °C 64.2 °F /  17.9 °C 30 in /  1016.1 hPa SW 2 mph /  3.2 km/h 9 mph /  14.5 km/h 82 % 0 in /  0.0 mm
04:42 69.8 °F /  21.0 °C 64 °F /  17.8 °C 30 in /  1016.1 hPa SW 4 mph /  6.4 km/h 9 mph /  14.5 km/h 82 % 0 in /  0.0 mm
04:47 69.6 °F /  20.9 °C 63.9 °F /  17.7 °C 30 in /  1016.1 hPa SW 4 mph /  6.4 km/h 8 mph /  12.9 km/h 82 % 0 in /  0.0 mm
04:52 69.6 °F /  20.9 °C 64.2 °F /  17.9 °C 30 in /  1016.1 hPa South 2 mph /  3.2 km/h 8 mph /  12.9 km/h 83 % 0 in /  0.0 mm
04:57 69.4 °F /  20.8 °C 64 °F /  17.8 °C 30 in /  1016.1 hPa SSW 3 mph /  4.8 km/h 8 mph /  12.9 km/h 83 % 0 in /  0.0 mm
05:02 69.4 °F /  20.8 °C 64.4 °F /  18.0 °C 30 in /  1016.5 hPa SSW 4 mph /  6.4 km/h 8 mph /  12.9 km/h 84 % 0 in /  0.0 mm
05:12 69.3 °F /  20.7 °C 64.6 °F /  18.1 °C 30 in /  1016.1 hPa WSW 6 mph /  9.7 km/h 8 mph /  12.9 km/h 85 % 0 in /  0.0 mm
05:22 68.5 °F /  20.3 °C 64.6 °F /  18.1 °C 30 in /  1016.1 hPa WSW 6 mph /  9.7 km/h 9 mph /  14.5 km/h 87 % 0 in /  0.0 mm
05:27 68.2 °F /  20.1 °C 64.4 °F /  18.0 °C 30 in /  1016.1 hPa SW 3 mph /  4.8 km/h 9 mph /  14.5 km/h 88 % 0 in /  0.0 mm
05:37 67.6 °F /  19.8 °C 64.6 °F /  18.1 °C 30 in /  1016.1 hPa WSW 3 mph /  4.8 km/h 8 mph /  12.9 km/h 90 % 0 in /  0.0 mm
05:42 67.5 °F /  19.7 °C 64.8 °F /  18.2 °C 30 in /  1016.1 hPa WSW 4 mph /  6.4 km/h 6 mph /  9.7 km/h 91 % 0 in /  0.0 mm
05:47 67.5 °F /  19.7 °C 64.8 °F /  18.2 °C 30 in /  1016.5 hPa SW 4 mph /  6.4 km/h 6 mph /  9.7 km/h 91 % 0 in /  0.0 mm
05:52 67.3 °F /  19.6 °C 64.9 °F /  18.3 °C 30 in /  1016.1 hPa SSW 5 mph /  8.0 km/h 8 mph /  12.9 km/h 92 % 0 in /  0.0 mm
05:57 67.3 °F /  19.6 °C 64.9 °F /  18.3 °C 30 in /  1016.1 hPa SSW 4 mph /  6.4 km/h 8 mph /  12.9 km/h 92 % 0 in /  0.0 mm
06:02 67.3 °F /  19.6 °C 64.9 °F /  18.3 °C 30 in /  1016.5 hPa WSW 5 mph /  8.0 km/h 8 mph /  12.9 km/h 92 % 0 in /  0.0 mm
06:07 67.3 °F /  19.6 °C 64.9 °F /  18.3 °C 30 in /  1016.5 hPa WSW 6 mph /  9.7 km/h 8 mph /  12.9 km/h 92 % 0 in /  0.0 mm
06:12 67.3 °F /  19.6 °C 64.9 °F /  18.3 °C 30 in /  1016.5 hPa SSW 4 mph /  6.4 km/h 9 mph /  14.5 km/h 92 % 0 in /  0.0 mm
06:17 67.3 °F /  19.6 °C 64.9 °F /  18.3 °C 30 in /  1016.5 hPa SW 5 mph /  8.0 km/h 9 mph /  14.5 km/h 92 % 0 in /  0.0 mm
06:22 67.3 °F /  19.6 °C 64.9 °F /  18.3 °C 30 in /  1016.5 hPa SW 5 mph /  8.0 km/h 9 mph /  14.5 km/h 92 % 0 in /  0.0 mm
06:32 67.5 °F /  19.7 °C 64.8 °F /  18.2 °C 30 in /  1016.5 hPa SW 4 mph /  6.4 km/h 8 mph /  12.9 km/h 91 % 0 in /  0.0 mm
06:42 67.5 °F /  19.7 °C 64.8 °F /  18.2 °C 30 in /  1016.8 hPa WSW 3 mph /  4.8 km/h 8 mph /  12.9 km/h 91 % 0 in /  0.0 mm
06:47 67.5 °F /  19.7 °C 64.8 °F /  18.2 °C 30 in /  1016.8 hPa West 4 mph /  6.4 km/h 8 mph /  12.9 km/h 91 % 0 in /  0.0 mm
06:52 67.6 °F /  19.8 °C 64.6 °F /  18.1 °C 30 in /  1016.8 hPa WSW 6 mph /  9.7 km/h 8 mph /  12.9 km/h 90 % 0 in /  0.0 mm
06:57 67.6 °F /  19.8 °C 64.6 °F /  18.1 °C 30 in /  1016.8 hPa SW 5 mph /  8.0 km/h 9 mph /  14.5 km/h 90 % 0 in /  0.0 mm
07:02 67.6 °F /  19.8 °C 64.6 °F /  18.1 °C 30 in /  1016.8 hPa WSW 9 mph /  14.5 km/h 10 mph /  16.1 km/h 90 % 0 in /  0.0 mm
07:07 67.6 °F /  19.8 °C 64.2 °F /  17.9 °C 30 in /  1016.8 hPa SW 8 mph /  12.9 km/h 13 mph /  20.9 km/h 89 % 0 in /  0.0 mm
07:12 67.6 °F /  19.8 °C 64.2 °F /  17.9 °C 30 in /  1016.8 hPa WSW 8 mph /  12.9 km/h 13 mph /  20.9 km/h 89 % 0 in /  0.0 mm
07:17 67.6 °F /  19.8 °C 64.2 °F /  17.9 °C 30 in /  1016.8 hPa SW 5 mph /  8.0 km/h 13 mph /  20.9 km/h 89 % 0 in /  0.0 mm
07:22 67.6 °F /  19.8 °C 64 °F /  17.8 °C 30 in /  1016.8 hPa SW 9 mph /  14.5 km/h 10 mph /  16.1 km/h 88 % 0 in /  0.0 mm
07:27 67.6 °F /  19.8 °C 64 °F /  17.8 °C 30 in /  1017.2 hPa WSW 6 mph /  9.7 km/h 10 mph /  16.1 km/h 88 % 0 in /  0.0 mm
07:32 67.6 °F /  19.8 °C 64 °F /  17.8 °C 30 in /  1017.2 hPa WNW 4 mph /  6.4 km/h 11 mph /  17.7 km/h 88 % 0 in /  0.0 mm
07:37 67.6 °F /  19.8 °C 64 °F /  17.8 °C 30 in /  1017.2 hPa West 5 mph /  8.0 km/h 11 mph /  17.7 km/h 88 % 0 in /  0.0 mm
07:42 67.6 °F /  19.8 °C 64 °F /  17.8 °C 30 in /  1017.2 hPa West 6 mph /  9.7 km/h 13 mph /  20.9 km/h 88 % 0 in /  0.0 mm
07:47 67.6 °F /  19.8 °C 64 °F /  17.8 °C 30 in /  1017.2 hPa WSW 7 mph /  11.3 km/h 13 mph /  20.9 km/h 88 % 0 in /  0.0 mm
07:52 67.6 °F /  19.8 °C 64 °F /  17.8 °C 30 in /  1017.2 hPa SW 1 mph /  1.6 km/h 11 mph /  17.7 km/h 88 % 0 in /  0.0 mm
07:57 67.5 °F /  19.7 °C 64 °F /  17.8 °C 30 in /  1017.2 hPa West 3 mph /  4.8 km/h 9 mph /  14.5 km/h 89 % 0 in /  0.0 mm
08:02 67.3 °F /  19.6 °C 63.9 °F /  17.7 °C 30.1 in /  1017.5 hPa West 4 mph /  6.4 km/h 12 mph /  19.3 km/h 89 % 0 in /  0.0 mm
08:07 66.9 °F /  19.4 °C 63.9 °F /  17.7 °C 30.1 in /  1017.5 hPa SW 5 mph /  8.0 km/h 12 mph /  19.3 km/h 90 % 0 in /  0.0 mm
08:12 66.6 °F /  19.2 °C 63.9 °F /  17.7 °C 30.1 in /  1017.5 hPa WSW 3 mph /  4.8 km/h 12 mph /  19.3 km/h 91 % 0 in /  0.0 mm
08:17 66.4 °F /  19.1 °C 64 °F /  17.8 °C 30.1 in /  1017.5 hPa SW 7 mph /  11.3 km/h 11 mph /  17.7 km/h 92 % 0 in /  0.0 mm
08:22 66.2 °F /  19.0 °C 63.5 °F /  17.5 °C 30.1 in /  1017.5 hPa West 5 mph /  8.0 km/h 14 mph /  22.5 km/h 91 % 0 in /  0.0 mm
08:27 66 °F /  18.9 °C 63 °F /  17.2 °C 30.1 in /  1017.5 hPa WNW 5 mph /  8.0 km/h 14 mph /  22.5 km/h 90 % 0 in /  0.0 mm
08:32 66 °F /  18.9 °C 63 °F /  17.2 °C 30.1 in /  1017.5 hPa WSW 11 mph /  17.7 km/h 14 mph /  22.5 km/h 90 % 0 in /  0.0 mm
08:37 66 °F /  18.9 °C 62.6 °F /  17.0 °C 30.1 in /  1017.8 hPa West 2 mph /  3.2 km/h 11 mph /  17.7 km/h 89 % 0 in /  0.0 mm
08:42 66 °F /  18.9 °C 62.6 °F /  17.0 °C 30.1 in /  1017.5 hPa WSW 4 mph /  6.4 km/h 11 mph /  17.7 km/h 89 % 0 in /  0.0 mm
08:47 66 °F /  18.9 °C 62.4 °F /  16.9 °C 30.1 in /  1017.8 hPa WSW 7 mph /  11.3 km/h 11 mph /  17.7 km/h 88 % 0 in /  0.0 mm
08:52 66 °F /  18.9 °C 62.6 °F /  17.0 °C 30.1 in /  1017.8 hPa West 6 mph /  9.7 km/h 9 mph /  14.5 km/h 89 % 0 in /  0.0 mm
08:57 66 °F /  18.9 °C 62.4 °F /  16.9 °C 30.1 in /  1017.8 hPa West 6 mph /  9.7 km/h 11 mph /  17.7 km/h 88 % 0 in /  0.0 mm
09:02 66.4 °F /  19.1 °C 63 °F /  17.2 °C 30.1 in /  1017.8 hPa WSW 3 mph /  4.8 km/h 11 mph /  17.7 km/h 89 % 0 in /  0.0 mm
09:12 66.7 °F /  19.3 °C 63.3 °F /  17.4 °C 30.1 in /  1017.8 hPa West 5 mph /  8.0 km/h 11 mph /  17.7 km/h 89 % 0 in /  0.0 mm
09:17 66.7 °F /  19.3 °C 62.8 °F /  17.1 °C 30.1 in /  1018.2 hPa WSW 7 mph /  11.3 km/h 11 mph /  17.7 km/h 87 % 0 in /  0.0 mm
09:22 66.9 °F /  19.4 °C 63 °F /  17.2 °C 30.1 in /  1018.2 hPa WSW 6 mph /  9.7 km/h 11 mph /  17.7 km/h 87 % 0 in /  0.0 mm
09:27 67.3 °F /  19.6 °C 63 °F /  17.2 °C 30.1 in /  1018.2 hPa WNW 5 mph /  8.0 km/h 9 mph /  14.5 km/h 86 % 0 in /  0.0 mm
09:32 67.5 °F /  19.7 °C 62.1 °F /  16.7 °C 30.1 in /  1018.2 hPa West 6 mph /  9.7 km/h 11 mph /  17.7 km/h 83 % 0 in /  0.0 mm
09:37 67.5 °F /  19.7 °C 61.7 °F /  16.5 °C 30.1 in /  1018.2 hPa WSW 5 mph /  8.0 km/h 12 mph /  19.3 km/h 82 % 0 in /  0.0 mm
09:42 67.6 °F /  19.8 °C 62.2 °F /  16.8 °C 30.1 in /  1018.2 hPa West 7 mph /  11.3 km/h 12 mph /  19.3 km/h 83 % 0 in /  0.0 mm
09:47 67.6 °F /  19.8 °C 61.9 °F /  16.6 °C 30.1 in /  1018.5 hPa WNW 5 mph /  8.0 km/h 12 mph /  19.3 km/h 82 % 0 in /  0.0 mm
09:52 67.8 °F /  19.9 °C 62.1 °F /  16.7 °C 30.1 in /  1018.5 hPa WNW 7 mph /  11.3 km/h 10 mph /  16.1 km/h 82 % 0 in /  0.0 mm
09:57 68.2 °F /  20.1 °C 62.1 °F /  16.7 °C 30.1 in /  1018.5 hPa West 3 mph /  4.8 km/h 11 mph /  17.7 km/h 81 % 0 in /  0.0 mm
10:02 68.5 °F /  20.3 °C 62.1 °F /  16.7 °C 30.1 in /  1018.5 hPa West 5 mph /  8.0 km/h 12 mph /  19.3 km/h 80 % 0 in /  0.0 mm
10:07 68.7 °F /  20.4 °C 61.5 °F /  16.4 °C 30.1 in /  1018.5 hPa SW 7 mph /  11.3 km/h 12 mph /  19.3 km/h 78 % 0 in /  0.0 mm
10:12 69.1 °F /  20.6 °C 61.5 °F /  16.4 °C 30.1 in /  1018.8 hPa NW 5 mph /  8.0 km/h 12 mph /  19.3 km/h 77 % 0 in /  0.0 mm
10:17 68.5 °F /  20.3 °C 60.6 °F /  15.9 °C 30.1 in /  1018.8 hPa NW 4 mph /  6.4 km/h 12 mph /  19.3 km/h 76 % 0 in /  0.0 mm
10:22 68.4 °F /  20.2 °C 60.8 °F /  16.0 °C 30.1 in /  1018.8 hPa West 7 mph /  11.3 km/h 12 mph /  19.3 km/h 77 % 0 in /  0.0 mm
10:27 68.7 °F /  20.4 °C 61.2 °F /  16.2 °C 30.1 in /  1018.8 hPa West 9 mph /  14.5 km/h 12 mph /  19.3 km/h 77 % 0 in /  0.0 mm
10:32 68.9 °F /  20.5 °C 60.3 °F /  15.7 °C 30.1 in /  1018.8 hPa WSW 5 mph /  8.0 km/h 11 mph /  17.7 km/h 74 % 0 in /  0.0 mm
10:37 69.4 °F /  20.8 °C 60.8 °F /  16.0 °C 30.1 in /  1018.8 hPa SW 6 mph /  9.7 km/h 11 mph /  17.7 km/h 74 % 0 in /  0.0 mm
10:42 69.3 °F /  20.7 °C 59.9 °F /  15.5 °C 30.1 in /  1018.8 hPa SW 9 mph /  14.5 km/h 11 mph /  17.7 km/h 72 % 0 in /  0.0 mm
10:47 69.3 °F /  20.7 °C 60.6 °F /  15.9 °C 30.1 in /  1018.8 hPa SSW 4 mph /  6.4 km/h 11 mph /  17.7 km/h 74 % 0 in /  0.0 mm
10:57 69.3 °F /  20.7 °C 59.9 °F /  15.5 °C 30.1 in /  1018.8 hPa WSW 6 mph /  9.7 km/h 11 mph /  17.7 km/h 72 % 0 in /  0.0 mm
11:02 69.4 °F /  20.8 °C 60.1 °F /  15.6 °C 30.1 in /  1019.2 hPa West 4 mph /  6.4 km/h 9 mph /  14.5 km/h 72 % 0 in /  0.0 mm
11:07 69.3 °F /  20.7 °C 59 °F /  15.0 °C 30.1 in /  1018.8 hPa WSW 6 mph /  9.7 km/h 9 mph /  14.5 km/h 70 % 0 in /  0.0 mm
11:12 69.4 °F /  20.8 °C 59.5 °F /  15.3 °C 30.1 in /  1018.8 hPa West 5 mph /  8.0 km/h 11 mph /  17.7 km/h 71 % 0 in /  0.0 mm
11:17 70 °F /  21.1 °C 59 °F /  15.0 °C 30.1 in /  1018.8 hPa South 4 mph /  6.4 km/h 11 mph /  17.7 km/h 68 % 0 in /  0.0 mm
11:22 70.2 °F /  21.2 °C 59.2 °F /  15.1 °C 30.1 in /  1018.8 hPa West 5 mph /  8.0 km/h 11 mph /  17.7 km/h 68 % 0 in /  0.0 mm
11:27 70.3 °F /  21.3 °C 58.1 °F /  14.5 °C 30.1 in /  1018.8 hPa West 7 mph /  11.3 km/h 12 mph /  19.3 km/h 65 % 0 in /  0.0 mm
11:32 69.8 °F /  21.0 °C 58.3 °F /  14.6 °C 30.1 in /  1018.8 hPa West 1 mph /  1.6 km/h 14 mph /  22.5 km/h 67 % 0 in /  0.0 mm
11:42 69.4 °F /  20.8 °C 58.8 °F /  14.9 °C 30.1 in /  1018.8 hPa WNW 3 mph /  4.8 km/h 14 mph /  22.5 km/h 69 % 0 in /  0.0 mm
11:47 70 °F /  21.1 °C 59.4 °F /  15.2 °C 30.1 in /  1018.8 hPa Calm   10 mph /  16.1 km/h 69 % 0 in /  0.0 mm
11:52 71.2 °F /  21.8 °C 58.8 °F /  14.9 °C 30.1 in /  1018.8 hPa WNW 8 mph /  12.9 km/h 8 mph /  12.9 km/h 65 % 0 in /  0.0 mm
11:57 71.4 °F /  21.9 °C 58.6 °F /  14.8 °C 30.1 in /  1018.8 hPa WNW 3 mph /  4.8 km/h 11 mph /  17.7 km/h 64 % 0 in /  0.0 mm
12:02 71.8 °F /  22.1 °C 59 °F /  15.0 °C 30.1 in /  1018.8 hPa WNW 6 mph /  9.7 km/h 14 mph /  22.5 km/h 64 % 0 in /  0.0 mm
12:07 70.7 °F /  21.5 °C 58.8 °F /  14.9 °C 30.1 in /  1018.8 hPa NW 8 mph /  12.9 km/h 14 mph /  22.5 km/h 66 % 0 in /  0.0 mm
12:12 71.1 °F /  21.7 °C 58.3 °F /  14.6 °C 30.1 in /  1018.8 hPa WNW 5 mph /  8.0 km/h 14 mph /  22.5 km/h 64 % 0 in /  0.0 mm
12:17 72 °F /  22.2 °C 59.2 °F /  15.1 °C 30.1 in /  1018.8 hPa WSW 2 mph /  3.2 km/h 13 mph /  20.9 km/h 64 % 0 in /  0.0 mm
12:22 72.3 °F /  22.4 °C 58.6 °F /  14.8 °C 30.1 in /  1019.2 hPa WNW 7 mph /  11.3 km/h 11 mph /  17.7 km/h 62 % 0 in /  0.0 mm
12:32 71.8 °F /  22.1 °C 57.2 °F /  14.0 °C 30.1 in /  1019.2 hPa West 4 mph /  6.4 km/h 10 mph /  16.1 km/h 60 % 0 in /  0.0 mm
12:42 72 °F /  22.2 °C 58.3 °F /  14.6 °C 30.1 in /  1019.5 hPa NNW 3 mph /  4.8 km/h 13 mph /  20.9 km/h 62 % 0 in /  0.0 mm
12:47 71.4 °F /  21.9 °C 57.2 °F /  14.0 °C 30.1 in /  1019.5 hPa West 3 mph /  4.8 km/h 13 mph /  20.9 km/h 61 % 0 in /  0.0 mm
12:52 71.6 °F /  22.0 °C 57 °F /  13.9 °C 30.1 in /  1019.5 hPa NW 5 mph /  8.0 km/h 13 mph /  20.9 km/h 60 % 0 in /  0.0 mm
13:02 71.8 °F /  22.1 °C 57.6 °F /  14.2 °C 30.1 in /  1019.9 hPa WNW 4 mph /  6.4 km/h 13 mph /  20.9 km/h 61 % 0 in /  0.0 mm
13:07 72.1 °F /  22.3 °C 57.9 °F /  14.4 °C 30.1 in /  1019.9 hPa West 3 mph /  4.8 km/h 13 mph /  20.9 km/h 61 % 0 in /  0.0 mm
13:12 72.5 °F /  22.5 °C 57.4 °F /  14.1 °C 30.1 in /  1019.9 hPa West 5 mph /  8.0 km/h 14 mph /  22.5 km/h 59 % 0 in /  0.0 mm
13:17 72.5 °F /  22.5 °C 57.7 °F /  14.3 °C 30.1 in /  1019.9 hPa NNE 4 mph /  6.4 km/h 14 mph /  22.5 km/h 60 % 0 in /  0.0 mm
13:22 72.5 °F /  22.5 °C 57.7 °F /  14.3 °C 30.1 in /  1019.9 hPa West 5 mph /  8.0 km/h 14 mph /  22.5 km/h 60 % 0 in /  0.0 mm
13:27 72.1 °F /  22.3 °C 57 °F /  13.9 °C 30.1 in /  1019.9 hPa WNW 4 mph /  6.4 km/h 14 mph /  22.5 km/h 59 % 0 in /  0.0 mm
13:32 72.1 °F /  22.3 °C 56.5 °F /  13.6 °C 30.1 in /  1019.9 hPa West 7 mph /  11.3 km/h 14 mph /  22.5 km/h 58 % 0 in /  0.0 mm
13:37 72 °F /  22.2 °C 57.7 °F /  14.3 °C 30.1 in /  1019.9 hPa WNW 11 mph /  17.7 km/h 14 mph /  22.5 km/h 61 % 0 in /  0.0 mm
13:42 71.8 °F /  22.1 °C 57.6 °F /  14.2 °C 30.1 in /  1019.9 hPa WNW 5 mph /  8.0 km/h 13 mph /  20.9 km/h 61 % 0 in /  0.0 mm
13:47 71.4 °F /  21.9 °C 57.2 °F /  14.0 °C 30.1 in /  1019.9 hPa West 5 mph /  8.0 km/h 12 mph /  19.3 km/h 61 % 0 in /  0.0 mm
13:52 71.2 °F /  21.8 °C 56.1 °F /  13.4 °C 30.1 in /  1019.9 hPa NW 6 mph /  9.7 km/h 13 mph /  20.9 km/h 59 % 0 in /  0.0 mm
13:57 71.4 °F /  21.9 °C 56.8 °F /  13.8 °C 30.1 in /  1019.9 hPa WNW 3 mph /  4.8 km/h 14 mph /  22.5 km/h 60 % 0 in /  0.0 mm
14:02 71.4 °F /  21.9 °C 56.8 °F /  13.8 °C 30.1 in /  1019.9 hPa West 3 mph /  4.8 km/h 14 mph /  22.5 km/h 60 % 0 in /  0.0 mm
14:07 71.2 °F /  21.8 °C 56.1 °F /  13.4 °C 30.1 in /  1019.9 hPa NW 6 mph /  9.7 km/h 13 mph /  20.9 km/h 59 % 0 in /  0.0 mm
14:12 71.1 °F /  21.7 °C 55.6 °F /  13.1 °C 30.1 in /  1020.2 hPa WNW 9 mph /  14.5 km/h 11 mph /  17.7 km/h 58 % 0 in /  0.0 mm
14:17 71.1 °F /  21.7 °C 55.6 °F /  13.1 °C 30.1 in /  1020.2 hPa WNW 5 mph /  8.0 km/h 12 mph /  19.3 km/h 58 % 0 in /  0.0 mm
14:22 71.1 °F /  21.7 °C 55.6 °F /  13.1 °C 30.1 in /  1020.2 hPa WNW 4 mph /  6.4 km/h 12 mph /  19.3 km/h 58 % 0 in /  0.0 mm
14:27 71.1 °F /  21.7 °C 55.6 °F /  13.1 °C 30.1 in /  1020.2 hPa NW 5 mph /  8.0 km/h 13 mph /  20.9 km/h 58 % 0 in /  0.0 mm
14:32 71.1 °F /  21.7 °C 55 °F /  12.8 °C 30.1 in /  1020.2 hPa WNW 4 mph /  6.4 km/h 13 mph /  20.9 km/h 57 % 0 in /  0.0 mm
14:37 71.1 °F /  21.7 °C 55.6 °F /  13.1 °C 30.1 in /  1020.2 hPa NW 7 mph /  11.3 km/h 13 mph /  20.9 km/h 58 % 0 in /  0.0 mm
14:42 70.9 °F /  21.6 °C 55.4 °F /  13.0 °C 30.1 in /  1020.2 hPa WSW 6 mph /  9.7 km/h 11 mph /  17.7 km/h 58 % 0 in /  0.0 mm
14:47 71.1 °F /  21.7 °C 55.6 °F /  13.1 °C 30.1 in /  1020.2 hPa WNW 6 mph /  9.7 km/h 11 mph /  17.7 km/h 58 % 0 in /  0.0 mm
14:52 70.9 °F /  21.6 °C 55.8 °F /  13.2 °C 30.1 in /  1020.2 hPa WSW 8 mph /  12.9 km/h 10 mph /  16.1 km/h 59 % 0 in /  0.0 mm
14:57 71.1 °F /  21.7 °C 55.9 °F /  13.3 °C 30.1 in /  1020.2 hPa West 4 mph /  6.4 km/h 12 mph /  19.3 km/h 59 % 0 in /  0.0 mm
15:02 71.2 °F /  21.8 °C 55.8 °F /  13.2 °C 30.1 in /  1020.5 hPa West 6 mph /  9.7 km/h 12 mph /  19.3 km/h 58 % 0 in /  0.0 mm
15:07 71.1 °F /  21.7 °C 55.9 °F /  13.3 °C 30.1 in /  1020.5 hPa West 2 mph /  3.2 km/h 10 mph /  16.1 km/h 59 % 0 in /  0.0 mm
15:12 71.1 °F /  21.7 °C 55.6 °F /  13.1 °C 30.1 in /  1020.5 hPa WSW 3 mph /  4.8 km/h 12 mph /  19.3 km/h 58 % 0 in /  0.0 mm
15:17 71.1 °F /  21.7 °C 55.6 °F /  13.1 °C 30.1 in /  1020.5 hPa WNW 3 mph /  4.8 km/h 12 mph /  19.3 km/h 58 % 0 in /  0.0 mm
15:22 71.2 °F /  21.8 °C 55.8 °F /  13.2 °C 30.1 in /  1020.5 hPa WNW 7 mph /  11.3 km/h 12 mph /  19.3 km/h 58 % 0 in /  0.0 mm
15:27 71.4 °F /  21.9 °C 55.9 °F /  13.3 °C 30.1 in /  1020.5 hPa West 5 mph /  8.0 km/h 12 mph /  19.3 km/h 58 % 0 in /  0.0 mm
15:32 72 °F /  22.2 °C 56.3 °F /  13.5 °C 30.1 in /  1020.5 hPa West 4 mph /  6.4 km/h 11 mph /  17.7 km/h 58 % 0 in /  0.0 mm
15:37 72.3 °F /  22.4 °C 56.3 °F /  13.5 °C 30.1 in /  1020.5 hPa WNW 6 mph /  9.7 km/h 10 mph /  16.1 km/h 57 % 0 in /  0.0 mm
15:42 71.8 °F /  22.1 °C 55.8 °F /  13.2 °C 30.1 in /  1020.2 hPa WNW 3 mph /  4.8 km/h 11 mph /  17.7 km/h 57 % 0 in /  0.0 mm
15:47 71.8 °F /  22.1 °C 56.1 °F /  13.4 °C 30.1 in /  1020.5 hPa West 6 mph /  9.7 km/h 11 mph /  17.7 km/h 58 % 0 in /  0.0 mm
15:52 71.8 °F /  22.1 °C 56.1 °F /  13.4 °C 30.1 in /  1020.5 hPa West 6 mph /  9.7 km/h 11 mph /  17.7 km/h 58 % 0 in /  0.0 mm
16:02 71.8 °F /  22.1 °C 56.7 °F /  13.7 °C 30.1 in /  1020.5 hPa West 1 mph /  1.6 km/h 13 mph /  20.9 km/h 59 % 0 in /  0.0 mm
16:07 71.8 °F /  22.1 °C 56.1 °F /  13.4 °C 30.1 in /  1020.5 hPa WNW 4 mph /  6.4 km/h 13 mph /  20.9 km/h 58 % 0 in /  0.0 mm
16:12 71.8 °F /  22.1 °C 56.7 °F /  13.7 °C 30.1 in /  1020.5 hPa NNW 3 mph /  4.8 km/h 11 mph /  17.7 km/h 59 % 0 in /  0.0 mm
16:17 71.8 °F /  22.1 °C 57.2 °F /  14.0 °C 30.1 in /  1020.5 hPa WNW 7 mph /  11.3 km/h 11 mph /  17.7 km/h 60 % 0 in /  0.0 mm
16:22 71.4 °F /  21.9 °C 56.8 °F /  13.8 °C 30.1 in /  1020.5 hPa WNW 3 mph /  4.8 km/h 11 mph /  17.7 km/h 60 % 0 in /  0.0 mm
16:27 71.2 °F /  21.8 °C 56.1 °F /  13.4 °C 30.1 in /  1020.5 hPa WNW 3 mph /  4.8 km/h 10 mph /  16.1 km/h 59 % 0 in /  0.0 mm
16:32 70.9 °F /  21.6 °C 56.8 °F /  13.8 °C 30.1 in /  1020.5 hPa WNW 9 mph /  14.5 km/h 14 mph /  22.5 km/h 61 % 0 in /  0.0 mm
16:42 71.1 °F /  21.7 °C 55.9 °F /  13.3 °C 30.1 in /  1020.5 hPa WNW 4 mph /  6.4 km/h 14 mph /  22.5 km/h 59 % 0 in /  0.0 mm
16:47 71.2 °F /  21.8 °C 56.7 °F /  13.7 °C 30.1 in /  1020.5 hPa WNW 8 mph /  12.9 km/h 10 mph /  16.1 km/h 60 % 0 in /  0.0 mm
16:52 71.4 °F /  21.9 °C 56.3 °F /  13.5 °C 30.1 in /  1020.5 hPa WSW 2 mph /  3.2 km/h 10 mph /  16.1 km/h 59 % 0 in /  0.0 mm
16:57 71.4 °F /  21.9 °C 56.3 °F /  13.5 °C 30.1 in /  1020.5 hPa WNW 4 mph /  6.4 km/h 11 mph /  17.7 km/h 59 % 0 in /  0.0 mm
17:02 71.6 °F /  22.0 °C 56.5 °F /  13.6 °C 30.1 in /  1020.5 hPa WNW 3 mph /  4.8 km/h 11 mph /  17.7 km/h 59 % 0 in /  0.0 mm
17:07 71.4 °F /  21.9 °C 56.8 °F /  13.8 °C 30.1 in /  1020.5 hPa NNW 1 mph /  1.6 km/h 11 mph /  17.7 km/h 60 % 0 in /  0.0 mm
17:12 72 °F /  22.2 °C 56.3 °F /  13.5 °C 30.1 in /  1020.5 hPa NNW 5 mph /  8.0 km/h 7 mph /  11.3 km/h 58 % 0 in /  0.0 mm
17:17 71.8 °F /  22.1 °C 56.1 °F /  13.4 °C 30.1 in /  1020.5 hPa WNW 3 mph /  4.8 km/h 9 mph /  14.5 km/h 58 % 0 in /  0.0 mm
17:22 72 °F /  22.2 °C 56.3 °F /  13.5 °C 30.1 in /  1020.5 hPa WNW 6 mph /  9.7 km/h 10 mph /  16.1 km/h 58 % 0 in /  0.0 mm
17:27 72.9 °F /  22.7 °C 56.3 °F /  13.5 °C 30.1 in /  1020.5 hPa West 8 mph /  12.9 km/h 11 mph /  17.7 km/h 56 % 0 in /  0.0 mm
17:32 72.7 °F /  22.6 °C 55.6 °F /  13.1 °C 30.1 in /  1020.5 hPa WNW 2 mph /  3.2 km/h 11 mph /  17.7 km/h 55 % 0 in /  0.0 mm
17:37 72.7 °F /  22.6 °C 56.1 °F /  13.4 °C 30.1 in /  1020.5 hPa NW 3 mph /  4.8 km/h 11 mph /  17.7 km/h 56 % 0 in /  0.0 mm
17:42 72.9 °F /  22.7 °C 55.2 °F /  12.9 °C 30.1 in /  1020.5 hPa WNW 3 mph /  4.8 km/h 10 mph /  16.1 km/h 54 % 0 in /  0.0 mm
17:47 72.9 °F /  22.7 °C 54.7 °F /  12.6 °C 30.1 in /  1020.5 hPa West 1 mph /  1.6 km/h 10 mph /  16.1 km/h 53 % 0 in /  0.0 mm
17:52 73.4 °F /  23.0 °C 54.1 °F /  12.3 °C 30.1 in /  1020.5 hPa WNW 3 mph /  4.8 km/h 14 mph /  22.5 km/h 51 % 0 in /  0.0 mm
18:02 72.9 °F /  22.7 °C 54.1 °F /  12.3 °C 30.1 in /  1020.5 hPa West 8 mph /  12.9 km/h 14 mph /  22.5 km/h 52 % 0 in /  0.0 mm
18:07 72.3 °F /  22.4 °C 53.8 °F /  12.1 °C 30.1 in /  1020.5 hPa WNW 4 mph /  6.4 km/h 12 mph /  19.3 km/h 52 % 0 in /  0.0 mm
18:17 72 °F /  22.2 °C 53.4 °F /  11.9 °C 30.1 in /  1020.5 hPa West 4 mph /  6.4 km/h 9 mph /  14.5 km/h 52 % 0 in /  0.0 mm
18:22 72 °F /  22.2 °C 53.4 °F /  11.9 °C 30.1 in /  1020.5 hPa NW 6 mph /  9.7 km/h 6 mph /  9.7 km/h 52 % 0 in /  0.0 mm
18:27 71.8 °F /  22.1 °C 53.2 °F /  11.8 °C 30.1 in /  1020.5 hPa WNW 3 mph /  4.8 km/h 9 mph /  14.5 km/h 52 % 0 in /  0.0 mm
18:32 71.6 °F /  22.0 °C 53.1 °F /  11.7 °C 30.1 in /  1020.5 hPa NW 3 mph /  4.8 km/h 9 mph /  14.5 km/h 52 % 0 in /  0.0 mm
18:42 71.4 °F /  21.9 °C 52.9 °F /  11.6 °C 30.1 in /  1020.5 hPa WNW 3 mph /  4.8 km/h 8 mph /  12.9 km/h 52 % 0 in /  0.0 mm
18:47 71.4 °F /  21.9 °C 53.4 °F /  11.9 °C 30.2 in /  1020.9 hPa NNW 1 mph /  1.6 km/h 7 mph /  11.3 km/h 53 % 0 in /  0.0 mm
18:57 71.2 °F /  21.8 °C 53.2 °F /  11.8 °C 30.2 in /  1020.9 hPa West 2 mph /  3.2 km/h 7 mph /  11.3 km/h 53 % 0 in /  0.0 mm
19:02 71.2 °F /  21.8 °C 53.8 °F /  12.1 °C 30.2 in /  1020.9 hPa West 2 mph /  3.2 km/h 7 mph /  11.3 km/h 54 % 0 in /  0.0 mm
19:07 71.1 °F /  21.7 °C 53.6 °F /  12.0 °C 30.2 in /  1020.9 hPa NW 2 mph /  3.2 km/h 7 mph /  11.3 km/h 54 % 0 in /  0.0 mm
19:12 71.1 °F /  21.7 °C 53.6 °F /  12.0 °C 30.2 in /  1020.9 hPa NW 2 mph /  3.2 km/h 6 mph /  9.7 km/h 54 % 0 in /  0.0 mm
19:17 71.1 °F /  21.7 °C 54.1 °F /  12.3 °C 30.2 in /  1020.9 hPa WNW 3 mph /  4.8 km/h 6 mph /  9.7 km/h 55 % 0 in /  0.0 mm
19:22 71.1 °F /  21.7 °C 54.1 °F /  12.3 °C 30.2 in /  1020.9 hPa NW 2 mph /  3.2 km/h 6 mph /  9.7 km/h 55 % 0 in /  0.0 mm
19:27 71.1 °F /  21.7 °C 54.1 °F /  12.3 °C 30.2 in /  1020.9 hPa NW 2 mph /  3.2 km/h 5 mph /  8.0 km/h 55 % 0 in /  0.0 mm
19:32 71.4 °F /  21.9 °C 54 °F /  12.2 °C 30.2 in /  1020.9 hPa WNW 1 mph /  1.6 km/h 5 mph /  8.0 km/h 54 % 0 in /  0.0 mm
19:37 71.8 °F /  22.1 °C 54.3 °F /  12.4 °C 30.2 in /  1020.9 hPa WNW 2 mph /  3.2 km/h 6 mph /  9.7 km/h 54 % 0 in /  0.0 mm
19:42 71.4 °F /  21.9 °C 53.4 °F /  11.9 °C 30.2 in /  1020.9 hPa NNW 3 mph /  4.8 km/h 7 mph /  11.3 km/h 53 % 0 in /  0.0 mm
19:47 71.4 °F /  21.9 °C 54 °F /  12.2 °C 30.2 in /  1020.9 hPa Calm   7 mph /  11.3 km/h 54 % 0 in /  0.0 mm
19:52 71.4 °F /  21.9 °C 53.4 °F /  11.9 °C 30.2 in /  1020.9 hPa NW 4 mph /  6.4 km/h 7 mph /  11.3 km/h 53 % 0 in /  0.0 mm
19:57 71.2 °F /  21.8 °C 53.8 °F /  12.1 °C 30.2 in /  1020.9 hPa WNW 2 mph /  3.2 km/h 6 mph /  9.7 km/h 54 % 0 in /  0.0 mm
20:02 71.2 °F /  21.8 °C 53.8 °F /  12.1 °C 30.2 in /  1020.9 hPa WNW 1 mph /  1.6 km/h 6 mph /  9.7 km/h 54 % 0 in /  0.0 mm
20:07 71.2 °F /  21.8 °C 53.8 °F /  12.1 °C 30.2 in /  1021.2 hPa NW 3 mph /  4.8 km/h 6 mph /  9.7 km/h 54 % 0 in /  0.0 mm
20:12 71.4 °F /  21.9 °C 54 °F /  12.2 °C 30.2 in /  1021.2 hPa WNW 1 mph /  1.6 km/h 5 mph /  8.0 km/h 54 % 0 in /  0.0 mm
20:17 71.4 °F /  21.9 °C 54 °F /  12.2 °C 30.2 in /  1021.2 hPa Calm   5 mph /  8.0 km/h 54 % 0 in /  0.0 mm
20:22 71.2 °F /  21.8 °C 53.2 °F /  11.8 °C 30.2 in /  1021.2 hPa WSW 2 mph /  3.2 km/h 5 mph /  8.0 km/h 53 % 0 in /  0.0 mm
20:27 70.9 °F /  21.6 °C 52.9 °F /  11.6 °C 30.2 in /  1021.2 hPa West 2 mph /  3.2 km/h 5 mph /  8.0 km/h 53 % 0 in /  0.0 mm
20:32 70.7 °F /  21.5 °C 53.2 °F /  11.8 °C 30.2 in /  1021.2 hPa West 1 mph /  1.6 km/h 5 mph /  8.0 km/h 54 % 0 in /  0.0 mm
20:37 70.5 °F /  21.4 °C 53.6 °F /  12.0 °C 30.2 in /  1021.2 hPa West 1 mph /  1.6 km/h 5 mph /  8.0 km/h 55 % 0 in /  0.0 mm
20:47 70.2 °F /  21.2 °C 53.8 °F /  12.1 °C 30.2 in /  1021.2 hPa Calm   3 mph /  4.8 km/h 56 % 0 in /  0.0 mm
20:52 70.3 °F /  21.3 °C 54 °F /  12.2 °C 30.2 in /  1021.2 hPa West 1 mph /  1.6 km/h 3 mph /  4.8 km/h 56 % 0 in /  0.0 mm
20:57 70.3 °F /  21.3 °C 54.3 °F /  12.4 °C 30.2 in /  1021.2 hPa West 1 mph /  1.6 km/h 3 mph /  4.8 km/h 57 % 0 in /  0.0 mm
21:02 70 °F /  21.1 °C 54.5 °F /  12.5 °C 30.2 in /  1021.2 hPa Calm   2 mph /  3.2 km/h 58 % 0 in /  0.0 mm
21:07 69.6 °F /  20.9 °C 54.7 °F /  12.6 °C 30.2 in /  1021.2 hPa Calm   1 mph /  1.6 km/h 59 % 0 in /  0.0 mm
21:12 69.3 °F /  20.7 °C 54.9 °F /  12.7 °C 30.2 in /  1021.2 hPa Calm   1 mph /  1.6 km/h 60 % 0 in /  0.0 mm
21:17 68.7 °F /  20.4 °C 54.7 °F /  12.6 °C 30.2 in /  1021.2 hPa Calm   1 mph /  1.6 km/h 61 % 0 in /  0.0 mm
21:22 68.4 °F /  20.2 °C 54.9 °F /  12.7 °C 30.2 in /  1021.6 hPa Calm     62 % 0 in /  0.0 mm
21:27 68 °F /  20.0 °C 54.9 °F /  12.7 °C 30.2 in /  1021.6 hPa Calm     63 % 0 in /  0.0 mm
21:32 67.6 °F /  19.8 °C 55 °F /  12.8 °C 30.2 in /  1021.6 hPa Calm     64 % 0 in /  0.0 mm
21:37 66.9 °F /  19.4 °C 54.9 °F /  12.7 °C 30.2 in /  1021.6 hPa Calm     65 % 0 in /  0.0 mm
21:42 66.6 °F /  19.2 °C 54.9 °F /  12.7 °C 30.2 in /  1021.6 hPa Calm     66 % 0 in /  0.0 mm
21:47 66.2 °F /  19.0 °C 54.9 °F /  12.7 °C 30.2 in /  1021.9 hPa Calm     67 % 0 in /  0.0 mm
21:52 65.8 °F /  18.8 °C 55 °F /  12.8 °C 30.2 in /  1021.6 hPa WNW 2 mph /  3.2 km/h   68 % 0 in /  0.0 mm
21:57 65.5 °F /  18.6 °C 54.7 °F /  12.6 °C 30.2 in /  1021.9 hPa WNW 2 mph /  3.2 km/h 2 mph /  3.2 km/h 68 % 0 in /  0.0 mm
22:02 65.1 °F /  18.4 °C 54.3 °F /  12.4 °C 30.2 in /  1021.9 hPa Calm   2 mph /  3.2 km/h 68 % 0 in /  0.0 mm
22:07 64.8 °F /  18.2 °C 54.3 °F /  12.4 °C 30.2 in /  1021.9 hPa West 1 mph /  1.6 km/h 2 mph /  3.2 km/h 69 % 0 in /  0.0 mm
22:12 64.6 °F /  18.1 °C 54.1 °F /  12.3 °C 30.2 in /  1021.9 hPa NW 2 mph /  3.2 km/h 2 mph /  3.2 km/h 69 % 0 in /  0.0 mm
22:17 64.2 °F /  17.9 °C 53.8 °F /  12.1 °C 30.2 in /  1022.2 hPa WNW 1 mph /  1.6 km/h 3 mph /  4.8 km/h 69 % 0 in /  0.0 mm
22:22 63.9 °F /  17.7 °C 54 °F /  12.2 °C 30.2 in /  1021.9 hPa Calm   3 mph /  4.8 km/h 70 % 0 in /  0.0 mm
22:27 63.7 °F /  17.6 °C 54.1 °F /  12.3 °C 30.2 in /  1022.2 hPa WNW 1 mph /  1.6 km/h 3 mph /  4.8 km/h 71 % 0 in /  0.0 mm
22:32 63.7 °F /  17.6 °C 54.1 °F /  12.3 °C 30.2 in /  1022.2 hPa Calm   2 mph /  3.2 km/h 71 % 0 in /  0.0 mm
22:37 63.5 °F /  17.5 °C 54 °F /  12.2 °C 30.2 in /  1022.2 hPa Calm   2 mph /  3.2 km/h 71 % 0 in /  0.0 mm
22:42 63.3 °F /  17.4 °C 53.8 °F /  12.1 °C 30.2 in /  1022.2 hPa WNW 1 mph /  1.6 km/h 2 mph /  3.2 km/h 71 % 0 in /  0.0 mm
22:47 63 °F /  17.2 °C 53.4 °F /  11.9 °C 30.2 in /  1022.2 hPa WNW 1 mph /  1.6 km/h 2 mph /  3.2 km/h 71 % 0 in /  0.0 mm
22:52 62.8 °F /  17.1 °C 53.6 °F /  12.0 °C 30.2 in /  1022.2 hPa West 1 mph /  1.6 km/h 2 mph /  3.2 km/h 72 % 0 in /  0.0 mm
22:57 62.8 °F /  17.1 °C 53.6 °F /  12.0 °C 30.2 in /  1022.2 hPa WNW 3 mph /  4.8 km/h 3 mph /  4.8 km/h 72 % 0 in /  0.0 mm
23:02 62.6 °F /  17.0 °C 53.4 °F /  11.9 °C 30.2 in /  1022.2 hPa WNW 2 mph /  3.2 km/h 3 mph /  4.8 km/h 72 % 0 in /  0.0 mm
23:07 62.4 °F /  16.9 °C 53.6 °F /  12.0 °C 30.2 in /  1022.2 hPa WNW 3 mph /  4.8 km/h 3 mph /  4.8 km/h 73 % 0 in /  0.0 mm
23:12 62.2 °F /  16.8 °C 53.1 °F /  11.7 °C 30.2 in /  1022.2 hPa WNW 1 mph /  1.6 km/h 3 mph /  4.8 km/h 72 % 0 in /  0.0 mm
23:17 62.4 °F /  16.9 °C 52.9 °F /  11.6 °C 30.2 in /  1022.2 hPa NW 2 mph /  3.2 km/h 3 mph /  4.8 km/h 71 % 0 in /  0.0 mm
23:22 62.6 °F /  17.0 °C 53.1 °F /  11.7 °C 30.2 in /  1022.2 hPa NW 4 mph /  6.4 km/h 4 mph /  6.4 km/h 71 % 0 in /  0.0 mm
23:27 62.8 °F /  17.1 °C 52.5 °F /  11.4 °C 30.2 in /  1022.2 hPa WNW 4 mph /  6.4 km/h 6 mph /  9.7 km/h 69 % 0 in /  0.0 mm
23:32 63 °F /  17.2 °C 52.2 °F /  11.2 °C 30.2 in /  1022.2 hPa WNW 4 mph /  6.4 km/h 6 mph /  9.7 km/h 68 % 0 in /  0.0 mm
23:37 63.1 °F /  17.3 °C 52 °F /  11.1 °C 30.2 in /  1022.6 hPa WNW 1 mph /  1.6 km/h 6 mph /  9.7 km/h 67 % 0 in /  0.0 mm
23:42 63.1 °F /  17.3 °C 51.6 °F /  10.9 °C 30.2 in /  1022.6 hPa WNW 2 mph /  3.2 km/h 6 mph /  9.7 km/h 66 % 0 in /  0.0 mm
23:47 63.1 °F /  17.3 °C 51.6 °F /  10.9 °C 30.2 in /  1022.2 hPa WNW 1 mph /  1.6 km/h 7 mph /  11.3 km/h 66 % 0 in /  0.0 mm
23:52 63.1 °F /  17.3 °C 51.6 °F /  10.9 °C 30.2 in /  1022.6 hPa WNW 1 mph /  1.6 km/h 7 mph /  11.3 km/h 66 % 0 in /  0.0 mm
23:57 63.1 °F /  17.3 °C 51.6 °F /  10.9 °C 30.2 in /  1022.6 hPa West 1 mph /  1.6 km/h 7 mph /  11.3 km/h 66 % 0 in /  0.0 mm
Meteo18
Compliments of Weather Underground - 4 mb

Script developed by  Jim McMurry - jmcmurry@mwt.net Adapted for the template by  Wim van der Kuil - Leuven-Template.eu

You find our weather info also at:

European Weather Network

Weather Underground

Equipment we use:

Weather-station
Davis Vue

Weather-program
Meteohub

Weather-server
Raspberry PI 2 B+

Provider
1 and 1

Davis Vue

Meteohub

Raspberry PI 2 B+

1 and 1